Time;durP1;ratioP1;P1;durP2;ratioP2;P2;SDS_P1;SDS_P2;PMS_P1;PMS_P2;Temp;Humidity;BMP_temperature;BMP_pressure;BME280_temperature;BME280_humidity;BME280_pressure;Samples;Min_cycle;Max_cycle;Signal;HPM_P1;HPM_P2
2022/03/29 00:00:13;;;;;;;;;35.75;27.25;;;;;16.44;39.85;101221.75;2441853;28;46176;-82
2022/03/29 00:01:23;;;;;;;;;40.75;32.50;;;;;16.44;39.84;101224.41;2442265;28;45236;-82
2022/03/29 00:02:33;;;;;;;;;41.50;33.75;;;;;16.41;39.86;101220.09;2441297;28;47018;-82
2022/03/29 00:03:44;;;;;;;;;36.50;28.50;;;;;16.41;40.25;101216.59;2442875;28;45268;-82
2022/03/29 00:04:54;;;;;;;;;37.50;32.00;;;;;16.41;40.21;101213.94;2445459;27;46067;-82
2022/03/29 00:06:05;;;;;;;;;38.50;30.25;;;;;16.38;40.28;101209.66;2449843;28;45176;-84
2022/03/29 00:07:15;;;;;;;;;41.75;31.25;;;;;16.40;40.09;101212.22;2447971;27;45342;-83
2022/03/29 00:08:26;;;;;;;;;42.00;29.50;;;;;16.39;40.20;101211.38;2442313;28;45302;-83
2022/03/29 00:09:37;;;;;;;;;37.00;31.50;;;;;16.36;40.31;101208.00;2449487;28;46899;-83
2022/03/29 00:10:47;;;;;;;;;41.75;32.00;;;;;16.39;40.30;101206.06;2446633;28;45333;-83
2022/03/29 00:11:58;;;;;;;;;46.00;34.75;;;;;16.35;40.16;101199.19;2444937;27;45342;-83
2022/03/29 00:13:08;;;;;;;;;30.25;27.75;;;;;16.35;40.19;101188.56;2444754;28;45208;-82
2022/03/29 00:14:19;;;;;;;;;38.00;33.25;;;;;16.37;39.97;101191.16;2451914;27;46118;-82
2022/03/29 00:15:29;;;;;;;;;37.50;29.75;;;;;16.35;40.17;101187.72;2442517;27;45243;-81
2022/03/29 00:16:41;;;;;;;;;36.75;31.50;;;;;16.35;40.17;101187.72;2449323;27;46518;-81
2022/03/29 00:17:51;;;;;;;;;40.75;32.50;;;;;16.34;40.56;101188.66;2442453;28;45295;-80
2022/03/29 00:19:01;;;;;;;;;36.25;30.50;;;;;16.35;40.59;101191.22;2441789;28;45335;-80
2022/03/29 00:20:12;;;;;;;;;39.00;30.50;;;;;16.33;40.40;101187.78;2442058;28;44585;-80
2022/03/29 00:21:22;;;;;;;;;47.25;34.75;;;;;16.33;39.86;101177.19;2442046;28;45220;-80
2022/03/29 00:22:32;;;;;;;;;46.00;32.00;;;;;16.32;40.46;101180.78;2442276;28;45220;-80
2022/03/29 00:23:43;;;;;;;;;39.75;33.75;;;;;16.31;40.39;101176.41;2442059;28;46547;-80
2022/03/29 00:24:53;;;;;;;;;47.50;30.25;;;;;16.29;40.56;101176.50;2448643;28;45202;-80
2022/03/29 00:26:03;;;;;;;;;45.50;33.00;;;;;16.33;40.58;101177.19;2451882;27;46407;-81
2022/03/29 00:27:15;;;;;;;;;41.25;32.75;;;;;16.33;40.75;101176.31;2452106;27;45174;-81
2022/03/29 00:28:25;;;;;;;;;42.50;33.50;;;;;16.30;41.08;101179.97;2442991;27;45383;-81
2022/03/29 00:29:37;;;;;;;;;37.75;30.75;;;;;16.29;40.96;101173.84;2442415;28;44709;-80
2022/03/29 00:30:47;;;;;;;;;36.00;33.00;;;;;16.31;41.09;101179.94;2441670;28;45807;-80
2022/03/29 00:31:57;;;;;;;;;41.25;31.25;;;;;16.28;41.12;101172.13;2442163;28;45388;-80
2022/03/29 00:33:08;;;;;;;;;42.75;32.50;;;;;16.26;41.13;101167.81;2442145;28;45386;-80
2022/03/29 00:34:18;;;;;;;;;39.00;29.25;;;;;16.25;41.29;101161.66;2442016;28;44693;-80
2022/03/29 00:35:29;;;;;;;;;38.00;30.75;;;;;16.25;41.18;101160.81;2442140;28;45327;-80
2022/03/29 00:36:40;;;;;;;;;40.25;33.00;;;;;16.25;41.40;101163.47;2442002;28;45293;-80
2022/03/29 00:37:51;;;;;;;;;41.00;32.25;;;;;16.22;41.29;101164.47;2441966;28;45460;-80
2022/03/29 00:39:02;;;;;;;;;44.25;34.00;;;;;16.21;41.27;101160.09;2442115;28;44606;-80
2022/03/29 00:40:13;;;;;;;;;40.75;34.75;;;;;16.20;41.31;101164.53;2441906;28;45417;-80
2022/03/29 00:41:24;;;;;;;;;35.00;31.75;;;;;16.19;41.46;101162.84;2442187;27;45200;-80
2022/03/29 00:42:35;;;;;;;;;35.25;28.25;;;;;16.20;41.66;101163.66;2445340;28;45390;-81
2022/03/29 00:43:45;;;;;;;;;39.25;34.00;;;;;16.16;41.38;101156.81;2451644;28;44678;-81
2022/03/29 00:44:56;;;;;;;;;43.50;28.50;;;;;16.16;41.81;101152.38;2442810;28;45210;-81
2022/03/29 00:46:07;;;;;;;;;38.25;33.75;;;;;16.12;41.41;101147.31;2441921;28;45366;-81
2022/03/29 00:47:17;;;;;;;;;42.25;33.50;;;;;16.14;42.28;101150.75;2441838;28;46464;-81
2022/03/29 00:48:27;;;;;;;;;45.50;36.25;;;;;16.11;41.65;101141.13;2441927;28;45515;-81
2022/03/29 00:49:38;;;;;;;;;39.50;32.50;;;;;16.08;42.26;101143.94;2441708;28;45489;-81
2022/03/29 00:50:48;;;;;;;;;29.00;27.50;;;;;16.09;42.04;101143.00;2442014;28;45295;-82
2022/03/29 00:52:01;;;;;;;;;38.75;32.75;;;;;16.05;41.88;101144.13;2441735;28;45552;-82
2022/03/29 00:53:12;;;;;;;;;34.50;31.25;;;;;16.03;41.99;101135.31;2451598;28;44782;-82
2022/03/29 00:54:22;;;;;;;;;46.75;31.75;;;;;16.02;42.27;101145.09;2444972;27;45398;-82
2022/03/29 00:55:32;;;;;;;;;40.25;31.50;;;;;16.02;41.96;101125.66;2444695;28;45405;-82
2022/03/29 00:56:43;;;;;;;;;36.00;33.25;;;;;16.01;41.68;101129.25;2445169;28;46429;-82
2022/03/29 00:57:54;;;;;;;;;37.00;33.00;;;;;15.98;41.69;101127.59;2451012;28;45362;-78
2022/03/29 00:59:04;;;;;;;;;37.25;32.50;;;;;15.95;42.09;101123.31;2450961;28;45260;-77
2022/03/29 01:00:16;;;;;;;;;27.75;23.25;;;;;15.96;41.70;101122.38;2451419;28;45269;-78
2022/03/29 01:01:26;;;;;;;;;35.25;31.75;;;;;15.96;41.66;101125.03;2451641;27;46174;-78
2022/03/29 01:02:36;;;;;;;;;40.25;33.25;;;;;15.98;41.40;101120.50;2444578;27;45224;-79
2022/03/29 01:03:48;;;;;;;;;42.25;33.50;;;;;15.96;41.47;101111.78;2441134;28;45324;-79
2022/03/29 01:04:58;;;;;;;;;40.75;34.25;;;;;15.95;41.84;101118.00;2441342;28;45450;-79
2022/03/29 01:06:08;;;;;;;;;36.25;28.50;;;;;15.96;41.72;101114.44;2441689;28;45264;-79
2022/03/29 01:07:19;;;;;;;;;37.25;33.75;;;;;15.95;41.67;101110.06;2441857;28;45310;-79
2022/03/29 01:08:29;;;;;;;;;38.50;31.00;;;;;15.98;41.97;101117.84;2440690;28;46323;-79
2022/03/29 01:09:40;;;;;;;;;41.75;32.50;;;;;16.00;41.73;101114.28;2441296;28;44695;-79
2022/03/29 01:10:51;;;;;;;;;40.50;32.00;;;;;15.97;41.56;101113.50;2446322;28;45436;-79
2022/03/29 01:12:01;;;;;;;;;39.00;33.00;;;;;15.97;41.79;101108.22;2451605;27;45278;-79
2022/03/29 01:13:12;;;;;;;;;45.75;33.00;;;;;16.00;41.15;101109.81;2448869;28;46190;-79
2022/03/29 01:14:25;;;;;;;;;39.75;32.50;;;;;15.98;41.13;101104.59;2441470;28;44663;-79
2022/03/29 01:15:37;;;;;;;;;44.00;31.75;;;;;15.98;40.90;101103.75;2441282;28;45487;-79
2022/03/29 01:18:18;;;;;;;;;41.25;31.25;;;;;16.00;41.31;101098.38;2446573;28;45466;-79
2022/03/29 01:19:29;;;;;;;;;35.25;27.25;;;;;16.00;41.70;101093.91;2451558;27;45333;-79
2022/03/29 01:20:43;;;;;;;;;35.50;30.50;;;;;15.98;41.62;101101.97;2449245;28;45449;-79
2022/03/29 01:22:01;;;;;;;;;42.00;29.75;;;;;16.01;41.50;101094.78;2449724;27;45232;-78
2022/03/29 01:23:12;;;;;;;;;39.25;31.75;;;;;16.00;41.68;101096.56;2447740;28;45435;-78
2022/03/29 01:24:25;;;;;;;;;36.75;32.50;;;;;16.01;41.43;101095.63;2447504;27;44675;-78
2022/03/29 01:25:40;;;;;;;;;37.75;28.75;;;;;16.00;41.65;101098.38;2442231;28;46373;-80
2022/03/29 01:26:51;;;;;;;;;47.50;33.75;;;;;16.02;41.25;101096.50;2451652;27;45165;-80
2022/03/29 01:28:03;;;;;;;;;37.50;32.00;;;;;16.03;41.67;101095.56;2450366;28;45255;-80
2022/03/29 01:29:14;;;;;;;;;39.50;33.50;;;;;15.98;41.89;101086.06;2441867;28;44610;-80
2022/03/29 01:30:25;;;;;;;;;47.50;34.25;;;;;16.00;42.38;101078.00;2447321;28;45310;-78
2022/03/29 01:31:37;;;;;;;;;47.00;35.50;;;;;15.99;41.75;101081.63;2448456;28;45206;-79
2022/03/29 01:32:52;;;;;;;;;37.50;30.75;;;;;16.00;42.56;101083.31;2441572;28;45516;-79
2022/03/29 01:34:04;;;;;;;;;41.00;34.00;;;;;15.97;42.28;101079.06;2441779;28;45315;-79
2022/03/29 01:35:23;;;;;;;;;38.75;31.75;;;;;15.97;42.64;101070.22;2446040;28;45208;-79
2022/03/29 01:36:33;;;;;;;;;38.25;32.00;;;;;15.94;42.40;101073.91;2447846;27;44689;-79
2022/03/29 01:37:44;;;;;;;;;38.50;33.25;;;;;15.95;42.71;101072.94;2441605;28;45282;-79
2022/03/29 01:38:54;;;;;;;;;38.00;29.25;;;;;15.93;43.28;101071.31;2451113;28;44610;-78
2022/03/29 01:40:15;;;;;;;;;35.25;29.75;;;;;15.94;41.93;101073.03;2448203;27;46385;-78
2022/03/29 01:41:30;;;;;;;;;45.25;34.75;;;;;15.92;42.25;101070.47;2445948;28;45176;-79
2022/03/29 01:42:48;;;;;;;;;43.50;32.25;;;;;15.91;41.83;101063.44;2441380;28;45387;-79
2022/03/29 01:43:59;;;;;;;;;38.00;30.50;;;;;15.89;41.72;101065.31;2441600;28;44685;-79
2022/03/29 01:45:11;;;;;;;;;42.25;33.50;;;;;15.93;41.38;101072.16;2440990;28;45372;-79
2022/03/29 01:46:22;;;;;;;;;38.50;32.50;;;;;15.89;41.76;101060.00;2441727;28;45216;-79
2022/03/29 01:47:32;;;;;;;;;38.00;27.25;;;;;15.91;41.88;101065.22;2441454;28;46462;-79
2022/03/29 01:48:42;;;;;;;;;34.50;28.75;;;;;15.89;41.62;101067.09;2441627;28;44747;-78
2022/03/29 01:49:53;;;;;;;;;37.75;28.75;;;;;15.91;41.87;101070.53;2441629;28;46094;-78
2022/03/29 01:51:03;;;;;;;;;45.25;33.50;;;;;15.90;41.70;101068.81;2442372;28;45255;-78
2022/03/29 01:52:14;;;;;;;;;38.00;30.50;;;;;15.91;40.89;101067.88;2451221;27;45264;-78
2022/03/29 01:53:27;;;;;;;;;40.75;32.50;;;;;15.90;40.95;101067.00;2443944;27;45236;-78
2022/03/29 01:54:37;;;;;;;;;37.25;31.25;;;;;15.88;41.32;101062.75;2441367;28;45452;-78
2022/03/29 01:55:47;;;;;;;;;37.50;27.00;;;;;15.87;41.32;101064.53;2441213;28;45335;-78
2022/03/29 01:56:58;;;;;;;;;36.75;33.50;;;;;15.89;41.38;101067.09;2441476;28;46280;-78
2022/03/29 01:58:08;;;;;;;;;28.25;25.75;;;;;15.90;41.51;101060.88;2441660;28;45153;-79
2022/03/29 01:59:18;;;;;;;;;40.00;32.25;;;;;15.88;41.70;101058.28;2442716;28;45901;-79
2022/03/29 02:00:31;;;;;;;;;40.25;32.50;;;;;15.89;41.88;101061.78;2450182;27;44786;-80
2022/03/29 02:01:44;;;;;;;;;39.50;33.25;;;;;15.91;41.70;101063.44;2446684;27;46242;-80
2022/03/29 02:02:55;;;;;;;;;38.00;27.00;;;;;15.86;41.20;101055.72;2451294;28;45201;-80
2022/03/29 02:04:06;;;;;;;;;37.25;29.75;;;;;15.91;41.54;101063.44;2450967;27;46306;-80
2022/03/29 02:05:17;;;;;;;;;33.75;27.00;;;;;15.90;41.15;101045.81;2443994;27;44642;-80
2022/03/29 02:06:28;;;;;;;;;36.25;31.00;;;;;15.91;40.78;101049.31;2441242;28;45419;-80
2022/03/29 02:07:38;;;;;;;;;36.25;28.25;;;;;15.90;40.70;101045.81;2441411;28;45404;-80
2022/03/29 02:08:49;;;;;;;;;36.00;30.50;;;;;15.91;40.53;101047.53;2440461;28;47288;-80
2022/03/29 02:10:00;;;;;;;;;42.50;31.75;;;;;15.94;40.95;101050.03;2444732;28;45420;-80
2022/03/29 02:11:10;;;;;;;;;35.75;28.50;;;;;15.91;40.39;101044.88;2449352;28;45392;-80
2022/03/29 02:12:20;;;;;;;;;34.50;30.25;;;;;15.94;40.62;101046.53;2447950;27;45392;-79
2022/03/29 02:13:31;;;;;;;;;38.25;30.25;;;;;15.94;40.80;101038.56;2449787;27;46485;-79
2022/03/29 02:14:41;;;;;;;;;34.50;25.75;;;;;15.95;40.61;101035.00;2441400;28;45294;-79
2022/03/29 02:15:52;;;;;;;;;36.75;33.50;;;;;15.93;40.36;101029.75;2443912;27;45617;-79
2022/03/29 02:17:02;;;;;;;;;38.00;29.00;;;;;15.92;40.29;101029.84;2445548;27;45228;-79
2022/03/29 02:18:13;;;;;;;;;37.75;30.00;;;;;15.92;40.48;101022.75;2441087;28;46590;-79
2022/03/29 02:19:23;;;;;;;;;33.50;25.75;;;;;15.93;41.00;101021.81;2441172;28;45248;-80
2022/03/29 02:20:34;;;;;;;;;31.00;24.50;;;;;15.94;40.76;101014.72;2440881;28;46270;-80
2022/03/29 02:21:44;;;;;;;;;35.00;28.75;;;;;15.94;41.42;101009.41;2447736;28;45234;-80
2022/03/29 02:22:54;;;;;;;;;30.50;28.00;;;;;15.97;41.66;101010.13;2446160;27;46114;-80
2022/03/29 02:24:05;;;;;;;;;30.75;27.25;;;;;15.92;40.69;101001.56;2440682;28;45197;-80
2022/03/29 02:25:16;;;;;;;;;36.75;30.50;;;;;15.92;41.61;101004.19;2440636;28;45267;-80
2022/03/29 02:26:26;;;;;;;;;36.75;29.50;;;;;15.93;40.77;101002.38;2441305;28;45193;-80
2022/03/29 02:27:38;;;;;;;;;32.50;22.25;;;;;15.92;40.91;101001.56;2441152;28;45470;-80
2022/03/29 02:28:48;;;;;;;;;31.50;26.50;;;;;15.91;40.90;100999.81;2441726;28;44736;-80
2022/03/29 02:29:59;;;;;;;;;31.50;28.75;;;;;15.91;41.02;100998.97;2440889;28;45488;-80
2022/03/29 02:31:10;;;;;;;;;36.50;31.25;;;;;15.90;40.64;100991.97;2450173;28;45346;-80
2022/03/29 02:32:20;;;;;;;;;32.75;30.50;;;;;15.90;40.89;100989.31;2443759;28;45504;-80
2022/03/29 02:33:30;;;;;;;;;32.00;25.25;;;;;15.89;40.39;100996.41;2443320;28;44798;-79
2022/03/29 02:34:41;;;;;;;;;35.25;30.75;;;;;15.92;40.51;100993.59;2450412;28;45366;-79
2022/03/29 02:35:52;;;;;;;;;34.75;27.50;;;;;15.91;40.64;100991.88;2450524;27;45301;-79
2022/03/29 02:37:02;;;;;;;;;36.25;27.25;;;;;15.90;40.44;100992.78;2450807;27;46264;-79
2022/03/29 02:38:13;;;;;;;;;27.00;25.25;;;;;15.93;40.94;100989.13;2450947;27;45208;-83
2022/03/29 02:39:24;;;;;;;;;42.75;28.50;;;;;15.92;41.09;100985.66;2450993;27;45647;-83
2022/03/29 02:40:34;;;;;;;;;35.00;27.25;;;;;15.91;41.10;100981.28;2441737;27;45181;-83
2022/03/29 02:41:44;;;;;;;;;33.00;28.00;;;;;15.94;40.94;100988.22;2441057;27;47051;-82
2022/03/29 02:42:55;;;;;;;;;34.75;28.50;;;;;15.91;41.29;100985.72;2446886;28;44791;-81
2022/03/29 02:44:05;;;;;;;;;27.25;17.00;;;;;15.89;40.41;100977.84;2450968;28;46129;-81
2022/03/29 02:45:18;;;;;;;;;32.75;30.50;;;;;15.89;41.04;100974.34;2450673;27;44682;-81
2022/03/29 02:46:29;;;;;;;;;31.50;26.25;;;;;15.87;41.47;100971.78;2449961;27;45406;-80
2022/03/29 02:47:39;;;;;;;;;38.50;31.25;;;;;15.87;41.57;100977.06;2446524;28;45445;-80
2022/03/29 02:48:50;;;;;;;;;23.75;21.00;;;;;15.86;41.37;100975.34;2441582;28;45445;-80
2022/03/29 02:50:00;;;;;;;;;34.00;27.25;;;;;15.85;41.50;100973.66;2447138;27;45307;-80
2022/03/29 02:51:10;;;;;;;;;30.75;28.00;;;;;15.84;40.67;100975.44;2441226;27;45437;-78
2022/03/29 02:52:21;;;;;;;;;37.50;27.25;;;;;15.88;40.50;100973.47;2441004;28;45232;-78
2022/03/29 02:53:31;;;;;;;;;34.50;28.25;;;;;15.85;40.52;100968.34;2441271;28;46427;-78
2022/03/29 02:54:41;;;;;;;;;30.50;27.75;;;;;15.86;40.58;100975.34;2441178;28;44735;-78
2022/03/29 02:55:52;;;;;;;;;37.00;29.25;;;;;15.83;40.60;100965.75;2440772;28;45428;-78
2022/03/29 02:57:02;;;;;;;;;25.75;18.25;;;;;15.85;40.31;100968.34;2441132;28;45169;-78
2022/03/29 02:58:13;;;;;;;;;37.00;29.00;;;;;15.84;39.89;100958.66;2440857;28;46304;-78
2022/03/29 02:59:23;;;;;;;;;37.25;29.00;;;;;15.83;40.05;100956.94;2441407;28;44739;-78
2022/03/29 03:00:34;;;;;;;;;29.00;26.00;;;;;15.85;40.35;100963.88;2447908;28;45417;-77
2022/03/29 03:01:44;;;;;;;;;31.25;25.50;;;;;15.85;39.95;100963.06;2450853;28;45330;-77
2022/03/29 03:02:57;;;;;;;;;30.00;25.50;;;;;15.86;40.73;100955.00;2450042;28;46031;-77
2022/03/29 03:04:12;;;;;;;;;30.00;25.50;;;;;15.84;40.92;100956.03;2443126;28;45429;-77
2022/03/29 03:05:26;;;;;;;;;37.00;31.25;;;;;15.85;40.75;100963.88;2445667;28;45738;-77
2022/03/29 03:06:37;;;;;;;;;35.25;28.50;;;;;15.84;40.68;100967.50;2441145;28;45184;-77
2022/03/29 03:07:48;;;;;;;;;34.00;27.25;;;;;15.82;40.67;100960.56;2440751;28;45392;-78
2022/03/29 03:08:58;;;;;;;;;31.75;25.00;;;;;15.81;40.78;100962.34;2441336;28;45303;-78
2022/03/29 03:10:09;;;;;;;;;35.75;30.75;;;;;15.82;41.50;100963.19;2441680;28;45199;-78
2022/03/29 03:11:20;;;;;;;;;30.50;24.50;;;;;15.80;41.12;100960.63;2442447;27;44771;-78
2022/03/29 03:12:47;;;;;;;;;40.25;32.25;;;;;15.81;41.10;100964.97;2440690;28;46339;-78
2022/03/29 03:13:57;;;;;;;;;24.50;21.00;;;;;15.79;40.37;100953.63;2444608;28;44800;-78
2022/03/29 03:15:10;;;;;;;;;32.00;25.50;;;;;15.79;39.89;100952.75;2440649;28;46477;-78
2022/03/29 03:16:20;;;;;;;;;31.75;21.25;;;;;15.80;40.08;100959.78;2452424;27;45496;-79
2022/03/29 03:17:31;;;;;;;;;29.25;22.25;;;;;15.77;40.92;100957.28;2453234;27;46479;-79
2022/03/29 03:18:41;;;;;;;;;32.50;25.25;;;;;15.78;41.18;100959.00;2442035;28;45318;-77
2022/03/29 03:19:51;;;;;;;;;28.50;27.00;;;;;15.77;41.18;100955.50;2449302;28;46025;-77
2022/03/29 03:21:02;;;;;;;;;31.25;25.25;;;;;15.77;40.88;100949.31;2442091;28;45243;-77
2022/03/29 03:22:13;;;;;;;;;34.00;27.25;;;;;15.76;40.81;100953.75;2440783;28;45359;-78
2022/03/29 03:23:23;;;;;;;;;30.25;25.25;;;;;15.75;39.84;100949.41;2445040;28;45235;-78
2022/03/29 03:24:33;;;;;;;;;32.00;24.25;;;;;15.75;40.02;100952.91;2449288;28;47386;-79
2022/03/29 03:25:44;;;;;;;;;31.25;24.00;;;;;15.75;39.34;100946.78;2440521;28;45255;-78
2022/03/29 03:26:54;;;;;;;;;32.25;23.50;;;;;15.72;39.88;100944.28;2447268;28;45433;-78
2022/03/29 03:28:05;;;;;;;;;30.25;22.75;;;;;15.72;39.80;100944.28;2452020;27;45168;-79
2022/03/29 03:29:15;;;;;;;;;33.00;23.50;;;;;15.71;41.17;100935.47;2445871;27;45220;-79
2022/03/29 03:30:26;;;;;;;;;34.50;26.00;;;;;15.70;39.42;100936.41;2442581;28;45675;-78
2022/03/29 03:31:36;;;;;;;;;30.25;23.75;;;;;15.70;40.79;100939.06;2442428;28;45393;-78
2022/03/29 03:32:46;;;;;;;;;22.75;18.50;;;;;15.67;41.30;100933.03;2442525;28;45162;-78
2022/03/29 03:33:57;;;;;;;;;27.25;24.00;;;;;15.67;42.25;100933.91;2442577;28;45394;-78
2022/03/29 03:35:08;;;;;;;;;27.00;23.50;;;;;15.66;42.39;100933.97;2442376;28;45225;-78
2022/03/29 03:36:18;;;;;;;;;32.00;23.25;;;;;15.65;41.62;100935.78;2442379;28;45700;-78
2022/03/29 03:37:28;;;;;;;;;37.25;24.25;;;;;15.62;41.17;100928.84;2442909;28;45366;-78
2022/03/29 03:38:39;;;;;;;;;29.75;22.25;;;;;15.62;41.24;100925.34;2442715;28;45334;-78
2022/03/29 03:39:49;;;;;;;;;26.75;24.00;;;;;15.61;40.66;100923.63;2442581;28;45432;-81
2022/03/29 03:40:59;;;;;;;;;21.25;20.00;;;;;15.61;40.75;100924.47;2442431;28;46286;-80
2022/03/29 03:42:10;;;;;;;;;26.00;22.75;;;;;15.61;41.00;100926.25;2442498;28;45153;-80
2022/03/29 03:43:20;;;;;;;;;31.00;24.75;;;;;15.62;40.14;100934.16;2442344;28;45382;-80
2022/03/29 03:44:31;;;;;;;;;35.50;26.50;;;;;15.59;40.11;100926.34;2442474;28;45286;-80
2022/03/29 03:45:41;;;;;;;;;35.50;24.00;;;;;15.59;40.26;100922.84;2442463;28;45362;-80
2022/03/29 03:46:52;;;;;;;;;15.00;7.75;;;;;15.60;40.64;100922.78;2442692;28;44665;-80
2022/03/29 03:48:06;;;;;;;;;29.75;23.75;;;;;15.59;40.64;100923.69;2448128;28;45459;-80
2022/03/29 03:49:16;;;;;;;;;35.00;24.00;;;;;15.58;40.75;100918.50;2449262;28;45159;-81
2022/03/29 03:50:27;;;;;;;;;25.50;21.50;;;;;15.55;40.50;100919.50;2451899;28;45635;-81
2022/03/29 03:51:37;;;;;;;;;27.00;23.25;;;;;15.54;40.83;100915.13;2452191;27;45451;-81
2022/03/29 03:52:49;;;;;;;;;25.75;23.00;;;;;15.53;41.33;100911.63;2452037;27;45455;-81
2022/03/29 03:53:59;;;;;;;;;27.75;22.50;;;;;15.51;40.91;100909.97;2452347;27;44809;-81
2022/03/29 03:55:10;;;;;;;;;26.75;22.75;;;;;15.51;41.25;100908.19;2451809;27;46464;-82
2022/03/29 03:56:21;;;;;;;;;24.75;22.00;;;;;15.48;40.99;100903.03;2452281;27;45388;-83
2022/03/29 03:57:31;;;;;;;;;32.25;24.50;;;;;15.50;41.43;100908.28;2448790;27;45330;-83
2022/03/29 03:58:41;;;;;;;;;32.75;22.50;;;;;15.47;41.52;100904.00;2442184;28;45298;-83
2022/03/29 03:59:55;;;;;;;;;26.50;24.50;;;;;15.47;41.92;100903.13;2451639;28;46266;-83
2022/03/29 04:01:06;;;;;;;;;32.75;23.75;;;;;15.46;41.45;100904.09;2449732;27;45230;-83
2022/03/29 04:02:16;;;;;;;;;31.50;23.75;;;;;15.46;41.46;100899.63;2442297;28;45390;-83
2022/03/29 04:03:26;;;;;;;;;25.25;23.50;;;;;15.44;41.59;100906.78;2442299;28;45240;-82
2022/03/29 04:04:37;;;;;;;;;35.25;28.50;;;;;15.46;40.48;100912.03;2442168;28;45521;-82
2022/03/29 04:05:47;;;;;;;;;33.00;23.25;;;;;15.43;41.60;100902.47;2442186;28;45321;-82
2022/03/29 04:06:58;;;;;;;;;25.50;22.50;;;;;15.40;41.58;100899.97;2442277;28;45423;-82
2022/03/29 04:08:08;;;;;;;;;30.75;24.25;;;;;15.41;41.36;100901.66;2442581;28;45487;-79
2022/03/29 04:09:18;;;;;;;;;31.00;24.00;;;;;15.40;40.22;100895.53;2448722;28;45356;-78
2022/03/29 04:10:29;;;;;;;;;26.50;23.00;;;;;15.39;39.91;100900.88;2451112;27;45291;-78
2022/03/29 04:11:39;;;;;;;;;30.75;26.00;;;;;15.41;40.07;100896.34;2442462;28;45350;-78
2022/03/29 04:12:50;;;;;;;;;28.25;25.25;;;;;15.44;40.14;100912.09;2442945;28;45320;-78
2022/03/29 04:14:00;;;;;;;;;32.00;28.00;;;;;15.42;39.86;100898.06;2451918;28;45396;-79
2022/03/29 04:15:11;;;;;;;;;28.50;22.00;;;;;15.43;40.11;100893.66;2442686;28;45282;-79
2022/03/29 04:16:21;;;;;;;;;34.50;25.00;;;;;15.42;40.64;100895.44;2453299;27;45447;-79
2022/03/29 04:17:32;;;;;;;;;29.75;22.75;;;;;15.45;41.09;100902.38;2451225;27;45225;-79
2022/03/29 04:18:42;;;;;;;;;32.25;23.50;;;;;15.44;41.27;100896.19;2441709;28;46387;-79
2022/03/29 04:19:52;;;;;;;;;30.75;25.00;;;;;15.44;41.57;100901.50;2442220;28;45228;-79
2022/03/29 04:21:05;;;;;;;;;26.75;24.50;;;;;15.44;41.95;100895.34;2449776;28;45242;-79
2022/03/29 04:22:18;;;;;;;;;31.75;23.75;;;;;15.41;40.53;100885.75;2452033;28;45234;-80
2022/03/29 04:23:28;;;;;;;;;29.00;24.25;;;;;15.43;39.82;100894.50;2449221;27;46232;-80
2022/03/29 04:24:39;;;;;;;;;29.00;22.00;;;;;15.40;40.38;100889.34;2442360;28;44747;-80
2022/03/29 04:25:49;;;;;;;;;31.50;23.75;;;;;15.45;40.01;100891.78;2441896;28;45589;-80
2022/03/29 04:26:59;;;;;;;;;32.25;25.00;;;;;15.42;41.44;100890.13;2442389;28;44693;-81
2022/03/29 04:28:10;;;;;;;;;27.25;24.75;;;;;15.45;41.11;100897.94;2442089;28;46334;-82
2022/03/29 04:29:20;;;;;;;;;28.00;24.00;;;;;15.43;40.14;100888.34;2445801;28;45180;-82
2022/03/29 04:30:31;;;;;;;;;28.25;23.50;;;;;15.45;40.21;100897.06;2451194;27;45282;-82
2022/03/29 04:31:41;;;;;;;;;27.75;24.00;;;;;15.46;39.46;100891.69;2442271;28;45247;-83
2022/03/29 04:32:51;;;;;;;;;21.25;20.50;;;;;15.45;38.98;100895.28;2448389;28;46091;-83
2022/03/29 04:34:02;;;;;;;;;26.50;23.50;;;;;15.44;38.97;100888.25;2452045;27;46549;-83
2022/03/29 04:35:13;;;;;;;;;30.25;24.75;;;;;15.47;38.94;100901.34;2451733;27;46236;-83
2022/03/29 04:36:24;;;;;;;;;33.50;26.50;;;;;15.44;38.74;100903.28;2443494;28;44727;-82
2022/03/29 04:37:35;;;;;;;;;39.25;31.25;;;;;15.46;38.94;100898.78;2441766;28;45363;-82
2022/03/29 04:38:45;;;;;;;;;33.75;26.00;;;;;15.46;38.87;100899.63;2451859;27;45148;-82
2022/03/29 04:39:55;;;;;;;;;26.75;24.50;;;;;15.50;38.76;100906.50;2441834;27;45419;-82
2022/03/29 04:41:06;;;;;;;;;34.25;25.00;;;;;15.51;38.74;100907.34;2448634;28;45298;-82
2022/03/29 04:42:18;;;;;;;;;24.50;23.75;;;;;15.51;38.26;100902.91;2447114;27;46425;-80
2022/03/29 04:43:28;;;;;;;;;25.75;21.25;;;;;15.52;38.86;100899.31;2449928;28;45250;-80
2022/03/29 04:44:39;;;;;;;;;28.25;24.25;;;;;15.50;39.09;100890.59;2447644;28;45635;-79
2022/03/29 04:45:49;;;;;;;;;32.75;28.75;;;;;15.51;38.75;100891.44;2449899;27;45288;-79
2022/03/29 04:47:00;;;;;;;;;29.25;25.00;;;;;15.55;38.42;100893.00;2448632;27;45433;-79
2022/03/29 04:48:12;;;;;;;;;29.00;24.50;;;;;15.51;38.46;100883.50;2443884;28;45309;-79
2022/03/29 04:49:22;;;;;;;;;23.50;21.75;;;;;15.52;38.67;100891.38;2451508;27;45403;-79
2022/03/29 04:50:33;;;;;;;;;23.50;21.50;;;;;15.56;38.88;100891.19;2448197;28;45330;-79
2022/03/29 04:51:43;;;;;;;;;25.25;21.25;;;;;15.53;38.58;100889.59;2441348;28;46086;-79
2022/03/29 04:52:53;;;;;;;;;21.50;21.50;;;;;15.53;38.62;100890.44;2441922;28;44751;-79
2022/03/29 04:54:04;;;;;;;;;26.50;19.50;;;;;15.53;39.05;100893.06;2442138;28;46995;-81
2022/03/29 04:55:15;;;;;;;;;22.50;21.00;;;;;15.56;38.27;100880.59;2441769;28;44775;-81
2022/03/29 04:56:25;;;;;;;;;27.75;19.00;;;;;15.52;38.39;100883.44;2446456;28;45563;-81
2022/03/29 04:57:36;;;;;;;;;24.50;23.25;;;;;15.53;38.34;100885.13;2450576;27;45417;-81
2022/03/29 04:58:46;;;;;;;;;22.00;16.75;;;;;15.52;38.58;100878.13;2441854;28;45472;-80
2022/03/29 04:59:56;;;;;;;;;24.00;21.50;;;;;15.55;38.76;100878.91;2448889;28;45278;-79
2022/03/29 05:01:07;;;;;;;;;28.50;25.25;;;;;15.55;39.00;100879.78;2444321;27;45460;-79
2022/03/29 05:02:17;;;;;;;;;25.50;22.50;;;;;15.56;38.63;100880.59;2442353;28;45274;-79
2022/03/29 05:03:28;;;;;;;;;26.75;22.25;;;;;15.54;38.62;100872.75;2445603;28;47090;-79
2022/03/29 05:04:38;;;;;;;;;24.25;23.25;;;;;15.56;39.03;100876.16;2434061;28;45281;-78
2022/03/29 05:05:48;;;;;;;;;28.00;21.00;;;;;15.56;39.06;100877.94;2434484;28;47333;-78
2022/03/29 05:06:59;;;;;;;;;28.00;24.25;;;;;15.57;38.72;100880.53;2448942;28;45325;-80
2022/03/29 05:08:09;;;;;;;;;31.75;24.50;;;;;15.55;38.70;100876.25;2449662;28;46074;-80
2022/03/29 05:09:19;;;;;;;;;32.50;22.50;;;;;15.56;38.66;100878.81;2447007;27;45521;-80
2022/03/29 05:10:30;;;;;;;;;28.25;22.25;;;;;15.57;38.55;100891.13;2443380;28;46197;-80
2022/03/29 05:11:40;;;;;;;;;29.00;24.50;;;;;15.59;39.30;100899.84;2442144;28;45129;-80
2022/03/29 05:12:55;;;;;;;;;25.75;23.25;;;;;15.58;39.61;100897.31;2442485;28;45481;-80
2022/03/29 05:14:05;;;;;;;;;24.50;19.00;;;;;15.60;40.11;100900.72;2442010;28;44831;-81
2022/03/29 05:15:18;;;;;;;;;25.00;19.00;;;;;15.61;39.30;100910.38;2441617;28;46585;-80
2022/03/29 05:16:28;;;;;;;;;30.00;24.00;;;;;15.59;39.63;100902.50;2456401;27;45440;-83
2022/03/29 05:17:40;;;;;;;;;30.00;24.00;;;;;15.60;39.59;100900.72;2450152;27;45450;-83
2022/03/29 05:18:51;;;;;;;;;33.75;23.25;;;;;15.61;39.35;100892.69;2441586;28;45420;-83
2022/03/29 05:20:03;;;;;;;;;24.50;21.75;;;;;15.60;39.12;100884.81;2441389;28;45700;-85
2022/03/29 05:21:14;;;;;;;;;27.75;23.75;;;;;15.60;38.81;100879.53;2441336;28;45243;-85
2022/03/29 05:22:24;;;;;;;;;25.00;21.75;;;;;15.60;38.78;100876.88;2441570;28;46350;-81
2022/03/29 05:23:34;;;;;;;;;23.75;20.50;;;;;15.57;38.64;100877.91;2443210;28;45271;-82